Parkland, Illinois
Current Conditions -  °F | °C
As of 12:54 AM on Thursday 27 Nov 2014 (Local Time) from KPIA Reporting Station
Broken Clouds Broken Clouds  
Wind Chill: 24°   Ceiling: 8500
Heat Index: 24°   Visibility: 8mi
Dew Point: 17°   Wind: 3mph
Humidity: 75%   Direction: 350°N
Pressure: 30.26"   Gusts: NA
Location:  40.3879°N, 89.7742°W
Report Text: KPIA 270654Z 35003KT 8SM BKN085 BKN110 M04/M08 A3026 RMK AO2 SLP254 T10441083
Loading
Personal Weather Stations






























Interactive Weather Map New forecast layout! Learn more

10-Day Weather Forecast

Advertisements
Track Severe Weather on mobile